Time;durP1;ratioP1;P1;durP2;ratioP2;P2;SDS_P1;SDS_P2;PMS_P1;PMS_P2;Temp;Humidity;BMP_temperature;BMP_pressure;BME280_temperature;BME280_humidity;BME280_pressure;Samples;Min_cycle;Max_cycle;Signal;HPM_P1;HPM_P2
2021/03/05 00:03:00;;;;;;;8.75;0.82;;;;;;;0.07;70.15;102210.16;10221710;28;20083;-67
2021/03/05 00:08:01;;;;;;;6.93;0.90;;;;;;;0.02;70.31;102220.69;10232923;28;20049;-67
2021/03/05 00:12:57;;;;;;;6.78;0.93;;;;;;;0.05;70.03;102223.00;10223407;28;20041;-68
2021/03/05 00:17:54;;;;;;;8.68;0.77;;;;;;;-0.15;70.68;102238.31;10212074;28;20108;-67
2021/03/05 00:22:50;;;;;;;5.13;0.95;;;;;;;-0.07;70.93;102238.94;10205277;28;20550;-67
2021/03/05 00:27:47;;;;;;;6.88;0.93;;;;;;;0.02;70.64;102236.84;10209952;28;20054;-68
2021/03/05 00:32:43;;;;;;;5.97;0.95;;;;;;;0.06;70.50;102243.44;10217374;28;20079;-68
2021/03/05 00:37:41;;;;;;;8.10;0.88;;;;;;;0.08;70.39;102246.75;10197550;28;20064;-68
2021/03/05 00:42:38;;;;;;;3.25;0.63;;;;;;;-0.01;70.81;102248.84;10195363;28;20486;-67
2021/03/05 00:47:35;;;;;;;6.43;0.88;;;;;;;0.04;70.21;102256.28;10194761;28;20562;-68
2021/03/05 00:52:31;;;;;;;8.65;1.15;;;;;;;-0.04;70.68;102261.91;10218419;28;20427;-66
2021/03/05 00:57:27;;;;;;;5.35;0.88;;;;;;;-0.03;70.22;102268.91;10209678;28;20077;-68
2021/03/05 01:02:24;;;;;;;7.97;1.25;;;;;;;-0.20;71.06;102275.75;10196390;28;20126;-68
2021/03/05 01:07:20;;;;;;;9.23;1.10;;;;;;;-0.23;71.11;102282.38;10206427;28;20045;-68
2021/03/05 01:12:16;;;;;;;4.18;0.90;;;;;;;-0.12;70.70;102283.59;10210329;28;20050;-68
2021/03/05 01:17:13;;;;;;;7.28;1.15;;;;;;;-0.25;71.05;102298.72;10197733;28;20046;-68
2021/03/05 01:22:09;;;;;;;9.95;1.65;;;;;;;-0.38;71.19;102296.00;10214464;28;20804;-71
2021/03/05 01:27:05;;;;;;;6.82;1.17;;;;;;;-0.28;70.99;102291.06;10216931;28;20049;-66
2021/03/05 01:32:02;;;;;;;6.55;1.17;;;;;;;-0.29;71.34;102294.78;10210996;28;20053;-70
2021/03/05 01:36:58;;;;;;;6.40;0.68;;;;;;;-0.23;70.97;102296.66;10200884;28;20060;-70
2021/03/05 01:41:54;;;;;;;14.27;1.48;;;;;;;-0.27;70.91;102302.66;10204753;28;20418;-70
2021/03/05 01:46:50;;;;;;;6.45;1.38;;;;;;;-0.64;72.64;102300.31;10206258;28;20045;-70
2021/03/05 01:51:46;;;;;;;10.23;1.42;;;;;;;-0.40;71.67;102298.06;10198600;28;20050;-68
2021/03/05 01:56:44;;;;;;;5.22;1.33;;;;;;;-0.36;71.56;102299.31;10206993;28;20073;-71
2021/03/05 02:01:41;;;;;;;6.80;1.40;;;;;;;-0.31;71.49;102301.41;10203264;28;20108;-69
2021/03/05 02:06:38;;;;;;;6.25;1.08;;;;;;;-0.33;71.67;102298.91;10207068;28;20050;-70
2021/03/05 02:11:34;;;;;;;6.65;1.15;;;;;;;-0.35;71.16;102306.34;10204599;28;20081;-69
2021/03/05 02:16:42;;;;;;;10.48;1.40;;;;;;;-0.41;71.80;102306.38;10216025;28;20148;-69
2021/03/05 02:21:50;;;;;;;8.82;1.45;;;;;;;-0.47;71.58;102319.56;10204767;28;20148;-69
2021/03/05 02:27:01;;;;;;;7.28;1.63;;;;;;;-0.39;71.07;102326.63;10205782;28;20503;-69
2021/03/05 02:32:19;;;;;;;5.63;1.58;;;;;;;-0.49;71.75;102331.56;10225358;28;20075;-69
2021/03/05 02:37:16;;;;;;;7.70;1.55;;;;;;;-0.61;72.19;102343.94;10203167;28;20640;-69
2021/03/05 02:42:28;;;;;;;8.23;1.38;;;;;;;-0.46;71.80;102337.34;10209601;28;20059;-69
2021/03/05 02:47:25;;;;;;;12.35;1.58;;;;;;;-0.44;71.36;102340.69;10216285;28;20046;-69
2021/03/05 02:52:24;;;;;;;9.45;1.45;;;;;;;-0.47;71.44;102338.38;10198117;28;20565;-70
2021/03/05 02:57:22;;;;;;;7.93;2.05;;;;;;;-0.53;71.77;102339.22;10187400;28;20061;-69
2021/03/05 03:02:23;;;;;;;10.73;1.35;;;;;;;-0.58;72.23;102340.84;10192655;28;20064;-70
2021/03/05 03:07:20;;;;;;;9.85;1.77;;;;;;;-0.57;72.02;102342.50;10206410;28;20470;-69
2021/03/05 03:12:17;;;;;;;12.85;2.00;;;;;;;-0.59;72.25;102352.63;10209544;28;20141;-70
2021/03/05 03:17:14;;;;;;;6.90;1.60;;;;;;;-0.58;71.90;102365.00;10224617;28;20073;-70
2021/03/05 03:22:10;;;;;;;5.70;1.00;;;;;;;-0.56;71.80;102360.28;10205273;28;20046;-69
2021/03/05 03:27:09;;;;;;;8.68;1.15;;;;;;;-0.65;71.97;102360.47;10207529;28;20053;-70
2021/03/05 03:32:05;;;;;;;10.63;1.92;;;;;;;-0.73;72.23;102360.63;10205911;28;20078;-69
2021/03/05 03:37:02;;;;;;;7.13;1.15;;;;;;;-0.69;72.10;102369.97;10209114;28;20435;-69
2021/03/05 03:42:00;;;;;;;11.18;2.17;;;;;;;-0.82;72.52;102369.91;10204753;28;20510;-69
2021/03/05 03:46:57;;;;;;;9.13;2.30;;;;;;;-0.78;72.76;102381.91;10222175;28;20073;-68
2021/03/05 03:51:58;;;;;;;8.18;1.55;;;;;;;-0.78;72.55;102387.28;10207572;28;20131;-68
2021/03/05 03:57:00;;;;;;;7.15;1.30;;;;;;;-0.85;72.62;102400.69;10217889;28;20474;-69
2021/03/05 04:01:57;;;;;;;9.48;1.60;;;;;;;-1.00;73.12;102391.94;10208168;28;20080;-69
2021/03/05 04:06:55;;;;;;;5.57;1.48;;;;;;;-0.90;72.81;102391.59;10216397;28;20095;-68
2021/03/05 04:11:53;;;;;;;9.95;1.40;;;;;;;-0.97;73.13;102404.16;10204565;28;20471;-68
2021/03/05 04:16:52;;;;;;;9.38;1.52;;;;;;;-0.93;73.08;102416.13;10219246;28;20092;-68
2021/03/05 04:21:50;;;;;;;6.30;1.42;;;;;;;-1.00;73.29;102410.72;10213744;28;20431;-68
2021/03/05 04:26:46;;;;;;;11.02;1.35;;;;;;;-1.01;73.14;102416.31;10199153;28;20415;-68
2021/03/05 04:31:42;;;;;;;8.05;2.38;;;;;;;-1.02;73.06;102422.69;10209541;28;20054;-69
2021/03/05 04:36:38;;;;;;;14.20;1.90;;;;;;;-1.15;73.44;102428.84;10211402;28;20636;-68
2021/03/05 04:41:35;;;;;;;4.80;1.17;;;;;;;-1.21;74.32;102441.16;10211184;28;20580;-68
2021/03/05 04:46:31;;;;;;;5.05;1.50;;;;;;;-1.18;73.66;102446.16;10203807;28;20140;-69
2021/03/05 04:51:27;;;;;;;6.75;1.40;;;;;;;-1.32;74.10;102439.88;10212114;28;20050;-69
2021/03/05 04:56:24;;;;;;;4.53;1.33;;;;;;;-1.43;74.03;102448.47;10211797;28;20046;-69
2021/03/05 05:01:21;;;;;;;26.80;4.72;;;;;;;-1.57;74.86;102458.25;10212955;28;20442;-70
2021/03/05 05:06:17;;;;;;;5.00;2.25;;;;;;;-1.55;74.25;102475.00;10206813;28;20076;-70
2021/03/05 05:11:13;;;;;;;6.88;1.70;;;;;;;-1.43;74.13;102491.41;10204217;28;20041;-70
2021/03/05 05:16:09;;;;;;;7.05;1.50;;;;;;;-1.55;74.37;102483.06;10198483;28;20812;-71
2021/03/05 05:21:07;;;;;;;6.95;1.55;;;;;;;-1.72;75.30;102479.81;10200159;28;20045;-71
2021/03/05 05:26:03;;;;;;;5.38;1.42;;;;;;;-1.61;74.76;102499.91;10198837;28;20582;-70
2021/03/05 05:30:59;;;;;;;10.45;1.73;;;;;;;-1.60;74.64;102504.25;10206491;28;20145;-70
2021/03/05 05:35:56;;;;;;;10.27;1.73;;;;;;;-1.58;74.74;102507.59;10205298;28;20049;-70
2021/03/05 05:40:52;;;;;;;7.90;1.70;;;;;;;-1.50;74.18;102514.66;10207966;28;20049;-67
2021/03/05 05:45:48;;;;;;;8.10;1.50;;;;;;;-1.45;73.92;102520.28;10194143;28;20109;-70
2021/03/05 05:50:46;;;;;;;5.85;1.73;;;;;;;-1.49;73.48;102517.13;10217941;28;20483;-69
2021/03/05 05:55:43;;;;;;;5.88;1.98;;;;;;;-1.52;74.09;102509.47;10201765;28;20431;-70
2021/03/05 06:00:39;;;;;;;6.57;1.63;;;;;;;-1.42;73.48;102516.38;10207300;28;20954;-68
2021/03/05 06:05:35;;;;;;;5.22;1.73;;;;;;;-1.46;73.73;102523.13;10198705;28;20054;-72
2021/03/05 06:10:31;;;;;;;8.70;2.10;;;;;;;-1.38;73.71;102531.06;10195559;28;20053;-69
2021/03/05 06:15:29;;;;;;;8.27;2.08;;;;;;;-1.41;73.39;102532.28;10197684;28;20491;-69
2021/03/05 06:20:43;;;;;;;8.88;2.00;;;;;;;-1.38;73.31;102531.06;10200411;28;20052;-67
2021/03/05 06:25:39;;;;;;;9.10;2.10;;;;;;;-1.35;73.42;102533.34;10199774;28;20103;-69
2021/03/05 06:30:35;;;;;;;5.88;1.75;;;;;;;-1.36;73.61;102531.69;10194493;28;20045;-68
2021/03/05 06:35:31;;;;;;;8.23;2.08;;;;;;;-1.31;73.82;102542.69;10202590;28;20061;-68
2021/03/05 06:40:27;;;;;;;8.38;2.72;;;;;;;-1.40;73.38;102546.53;10203180;28;20504;-64
2021/03/05 06:45:34;;;;;;;9.80;2.40;;;;;;;-1.31;73.33;102556.09;10202173;28;20048;-66
2021/03/05 06:50:36;;;;;;;9.55;2.45;;;;;;;-1.41;73.31;102560.97;10201345;28;20115;-68
2021/03/05 06:55:37;;;;;;;10.32;2.78;;;;;;;-1.57;73.42;102560.19;10205652;28;20431;-69
2021/03/05 07:00:33;;;;;;;8.57;2.15;;;;;;;-1.41;74.02;102571.72;10200287;28;20466;-68
2021/03/05 07:05:54;;;;;;;13.02;2.85;;;;;;;-1.38;73.98;102574.00;10220290;28;20063;-69
2021/03/05 07:10:50;;;;;;;6.97;2.05;;;;;;;-1.42;74.01;102588.81;10208120;28;20199;-68
2021/03/05 07:15:54;;;;;;;12.10;2.70;;;;;;;-1.27;73.43;102597.63;10215568;28;20052;-68
2021/03/05 07:20:51;;;;;;;8.60;2.77;;;;;;;-1.26;73.30;102604.66;10197881;28;20088;-66
2021/03/05 07:25:47;;;;;;;9.38;2.70;;;;;;;-1.19;73.41;102605.53;10192593;28;20041;-68
2021/03/05 07:30:46;;;;;;;11.57;2.80;;;;;;;-1.19;72.86;102623.50;10196796;28;20061;-69
2021/03/05 07:35:44;;;;;;;6.57;2.35;;;;;;;-1.03;73.18;102625.94;10198195;28;20534;-69
2021/03/05 07:40:43;;;;;;;9.38;2.83;;;;;;;-1.02;72.61;102626.75;10184924;28;20425;-68
2021/03/05 07:45:40;;;;;;;17.50;2.70;;;;;;;-0.92;72.68;102632.63;10205430;28;20041;-68
2021/03/05 07:50:36;;;;;;;8.13;2.78;;;;;;;-0.78;71.77;102637.09;10200717;28;20085;-69
2021/03/05 07:55:43;;;;;;;6.05;2.10;;;;;;;-0.77;71.61;102641.41;10202902;28;20103;-69
2021/03/05 08:00:48;;;;;;;7.10;2.50;;;;;;;-0.77;71.74;102646.78;10204580;28;20053;-69
2021/03/05 08:05:48;;;;;;;11.50;2.72;;;;;;;-0.56;71.60;102653.16;10197864;28;20248;-67
2021/03/05 08:10:48;;;;;;;8.07;2.20;;;;;;;-0.46;71.51;102653.66;10207977;28;20041;-67
2021/03/05 08:15:45;;;;;;;6.80;2.28;;;;;;;-0.41;71.18;102667.31;10211120;28;20045;-68
2021/03/05 08:20:41;;;;;;;5.75;1.95;;;;;;;-0.25;70.65;102675.06;10205628;28;20073;-69
2021/03/05 08:25:47;;;;;;;10.13;2.08;;;;;;;-0.20;69.61;102673.66;10206308;28;20038;-67
2021/03/05 08:30:44;;;;;;;6.22;2.42;;;;;;;-0.05;69.15;102685.09;10202128;28;20069;-68
2021/03/05 08:35:40;;;;;;;6.00;2.33;;;;;;;0.11;68.99;102690.16;10204742;28;20049;-68
2021/03/05 08:41:03;;;;;;;5.97;2.17;;;;;;;0.27;68.42;102690.84;10203714;28;20049;-68
2021/03/05 08:46:03;;;;;;;6.72;2.25;;;;;;;0.43;67.81;102695.88;10212168;28;20049;-69
2021/03/05 08:51:04;;;;;;;9.30;2.10;;;;;;;0.58;66.76;102704.66;10206798;28;20963;-69
2021/03/05 08:56:00;;;;;;;8.52;1.67;;;;;;;0.82;65.27;102705.94;10217147;28;20577;-68
2021/03/05 09:00:57;;;;;;;8.93;1.60;;;;;;;1.03;64.31;102712.22;10198318;28;20141;-68
2021/03/05 09:05:54;;;;;;;8.35;2.03;;;;;;;1.28;64.26;102709.75;10199845;28;20072;-68
2021/03/05 09:10:56;;;;;;;8.25;2.15;;;;;;;1.64;63.52;102714.69;10204222;28;20421;-67
2021/03/05 09:15:55;;;;;;;7.28;1.55;;;;;;;1.78;61.04;102731.69;10209164;28;20042;-68
2021/03/05 09:20:57;;;;;;;11.07;2.20;;;;;;;2.00;60.27;102726.91;10209711;28;20038;-69
2021/03/05 09:25:56;;;;;;;7.82;2.17;;;;;;;2.19;59.08;102725.19;10196779;28;20046;-68
2021/03/05 09:30:54;;;;;;;6.75;1.48;;;;;;;2.37;57.04;102715.56;10209884;28;20053;-67
2021/03/05 09:35:58;;;;;;;3.47;1.25;;;;;;;2.45;53.02;102726.13;10198588;28;20051;-68
2021/03/05 09:40:54;;;;;;;5.97;1.13;;;;;;;2.58;52.13;102741.47;10217908;28;20049;-68
2021/03/05 09:45:52;;;;;;;3.72;1.02;;;;;;;2.84;52.93;102745.91;10211919;28;20052;-66
2021/03/05 09:50:55;;;;;;;8.38;1.10;;;;;;;3.07;50.98;102739.94;10213380;28;20052;-69
2021/03/05 09:55:54;;;;;;;5.65;1.10;;;;;;;3.55;49.04;102751.03;10202038;28;20133;-67
2021/03/05 10:00:53;;;;;;;5.15;1.48;;;;;;;3.76;44.97;102755.22;10214493;28;20095;-67
2021/03/05 10:05:49;;;;;;;2.67;0.60;;;;;;;3.65;42.39;102763.22;10204220;28;20045;-68
2021/03/05 10:10:54;;;;;;;3.60;0.70;;;;;;;4.15;43.54;102757.75;10200496;28;20049;-68
2021/03/05 10:15:51;;;;;;;3.03;0.60;;;;;;;4.40;41.06;102761.19;10205671;28;20104;-69
2021/03/05 10:20:51;;;;;;;4.90;1.00;;;;;;;5.01;40.27;102762.09;10200712;28;20050;-68
2021/03/05 10:25:50;;;;;;;5.55;0.93;;;;;;;5.06;39.95;102774.97;10201047;28;20045;-66
2021/03/05 10:30:50;;;;;;;3.53;0.75;;;;;;;4.73;39.23;102784.34;10191781;28;20049;-66
2021/03/05 10:35:47;;;;;;;1.23;0.35;;;;;;;4.72;36.68;102785.41;10209276;28;20114;-69
2021/03/05 10:40:43;;;;;;;4.25;0.60;;;;;;;4.67;36.40;102782.56;10215852;28;20049;-68
2021/03/05 10:45:59;;;;;;;6.15;0.88;;;;;;;4.71;37.13;102789.19;10214755;28;22254;-68
2021/03/05 10:50:56;;;;;;;3.28;0.80;;;;;;;5.02;36.89;102788.16;10207415;28;20042;-68
2021/03/05 10:55:53;;;;;;;3.88;0.73;;;;;;;5.02;37.00;102779.19;10193119;28;20095;-67
2021/03/05 11:00:49;;;;;;;2.05;0.50;;;;;;;5.15;37.95;102789.88;10204607;28;20148;-69
2021/03/05 11:05:46;;;;;;;6.13;0.98;;;;;;;5.31;37.88;102787.53;10190832;28;20053;-67
2021/03/05 11:10:42;;;;;;;5.20;0.70;;;;;;;5.29;36.85;102793.19;10192144;28;20494;-68
2021/03/05 11:15:38;;;;;;;4.45;0.82;;;;;;;5.42;37.32;102794.88;10200072;28;20488;-68
2021/03/05 11:20:34;;;;;;;3.30;0.60;;;;;;;5.61;36.83;102798.34;10193239;28;20053;-67
2021/03/05 11:25:31;;;;;;;2.53;0.63;;;;;;;5.57;35.33;102795.28;10190382;28;20056;-66
2021/03/05 11:30:27;;;;;;;3.38;1.00;;;;;;;5.59;35.61;102787.75;10216178;28;20049;-68
2021/03/05 11:35:24;;;;;;;3.80;0.55;;;;;;;5.77;35.37;102789.50;10218610;28;20500;-69
2021/03/05 11:40:20;;;;;;;2.10;0.60;;;;;;;6.04;36.74;102792.63;10201477;28;20439;-68
2021/03/05 11:45:16;;;;;;;4.78;1.63;;;;;;;6.26;36.51;102789.31;10204311;28;20057;-67
2021/03/05 11:50:14;;;;;;;4.00;0.90;;;;;;;6.97;36.70;102783.69;10190637;28;20054;-69
2021/03/05 11:55:11;;;;;;;2.97;1.20;;;;;;;7.13;34.22;102788.34;10189739;28;20565;-69
2021/03/05 12:00:08;;;;;;;2.30;0.60;;;;;;;6.86;34.88;102794.38;10212242;28;20099;-69
2021/03/05 12:05:05;;;;;;;3.95;0.50;;;;;;;7.27;34.64;102789.69;10202097;28;20053;-67
2021/03/05 12:10:01;;;;;;;4.32;0.70;;;;;;;7.38;34.58;102793.44;10211232;28;20080;-67
2021/03/05 12:14:58;;;;;;;2.80;0.85;;;;;;;8.05;34.11;102784.41;10206186;28;20111;-69
2021/03/05 12:19:54;;;;;;;3.60;0.73;;;;;;;8.29;33.70;102784.22;10207430;28;20046;-69
2021/03/05 12:24:50;;;;;;;3.90;0.85;;;;;;;8.57;32.73;102786.78;10205667;28;20052;-69
2021/03/05 12:29:46;;;;;;;4.80;0.90;;;;;;;9.02;32.14;102772.03;10209292;28;20053;-67
2021/03/05 12:34:42;;;;;;;3.30;0.88;;;;;;;9.63;32.18;102771.78;10213320;28;20411;-67
2021/03/05 12:39:38;;;;;;;3.13;0.70;;;;;;;9.94;30.68;102772.00;10212872;28;20081;-69
2021/03/05 12:44:34;;;;;;;3.00;0.60;;;;;;;10.47;30.66;102774.78;10204572;28;20053;-68
2021/03/05 12:49:31;;;;;;;3.53;0.80;;;;;;;11.40;29.28;102773.91;10204487;28;20053;-68
2021/03/05 12:54:27;;;;;;;3.17;0.80;;;;;;;11.67;27.32;102764.56;10204933;28;20137;-69
2021/03/05 12:59:23;;;;;;;3.40;0.98;;;;;;;12.15;26.80;102770.56;10216669;28;20045;-68
2021/03/05 13:04:19;;;;;;;8.73;0.57;;;;;;;11.13;26.29;102772.22;10203224;28;20073;-68
2021/03/05 13:09:15;;;;;;;3.80;1.00;;;;;;;12.62;26.27;102770.13;10202320;28;20058;-66
2021/03/05 13:14:11;;;;;;;3.55;0.77;;;;;;;12.76;25.71;102774.97;10203584;28;20050;-67
2021/03/05 13:19:07;;;;;;;3.28;0.60;;;;;;;12.47;24.05;102783.91;10202927;28;20041;-68
2021/03/05 13:24:04;;;;;;;4.75;0.80;;;;;;;13.65;24.65;102780.44;10209472;28;20569;-69
2021/03/05 13:29:00;;;;;;;4.25;0.75;;;;;;;12.93;22.86;102774.63;10201269;28;20081;-68
2021/03/05 13:33:56;;;;;;;3.33;0.70;;;;;;;12.88;22.57;102778.22;10199666;28;20500;-67
2021/03/05 13:38:52;;;;;;;3.42;0.77;;;;;;;12.90;22.02;102780.66;10198372;28;20076;-68
2021/03/05 13:43:48;;;;;;;2.30;0.60;;;;;;;12.57;22.30;102783.84;10206672;28;20443;-68
2021/03/05 13:48:45;;;;;;;3.00;0.65;;;;;;;13.67;24.71;102778.25;10208902;28;20049;-67
2021/03/05 13:53:41;;;;;;;2.13;0.60;;;;;;;13.52;20.61;102781.91;10199339;28;20050;-64
2021/03/05 13:58:37;;;;;;;3.83;1.42;;;;;;;12.58;20.45;102784.69;10205769;28;20045;-67
2021/03/05 14:03:34;;;;;;;2.85;0.93;;;;;;;12.68;21.33;102784.63;10200895;28;20069;-69
2021/03/05 14:08:30;;;;;;;3.17;1.25;;;;;;;12.89;20.46;102782.59;10201201;28;20056;-68
2021/03/05 14:13:27;;;;;;;3.33;0.70;;;;;;;12.48;21.85;102785.53;10207204;28;20144;-67
2021/03/05 14:18:32;;;;;;;2.10;0.50;;;;;;;11.69;22.46;102778.81;10194308;28;20335;-67
2021/03/05 14:23:29;;;;;;;3.97;1.38;;;;;;;12.65;23.27;102766.00;10195518;28;20132;-68
2021/03/05 14:28:26;;;;;;;4.28;1.52;;;;;;;13.31;23.10;102769.47;10208006;28;20531;-68
2021/03/05 14:33:22;;;;;;;5.88;1.15;;;;;;;13.57;23.32;102775.56;10199509;28;20064;-68
2021/03/05 14:38:18;;;;;;;3.75;1.13;;;;;;;13.26;23.10;102779.34;10197686;28;20450;-67
2021/03/05 14:43:15;;;;;;;2.42;0.70;;;;;;;13.12;21.95;102783.84;10212442;28;20091;-69
2021/03/05 14:48:11;;;;;;;4.95;0.70;;;;;;;12.80;24.47;102785.13;10215808;28;20056;-68
2021/03/05 14:53:08;;;;;;;4.68;0.80;;;;;;;12.10;25.44;102789.78;10204290;28;20057;-66
2021/03/05 14:58:04;;;;;;;4.53;1.10;;;;;;;10.13;29.08;102807.09;10216368;28;20626;-66
2021/03/05 15:03:00;;;;;;;3.70;0.50;;;;;;;9.27;30.19;102806.13;10218321;28;20100;-69
2021/03/05 15:07:56;;;;;;;4.57;1.30;;;;;;;9.80;30.22;102804.41;10213779;28;20043;-69
2021/03/05 15:12:52;;;;;;;3.70;0.90;;;;;;;10.32;28.30;102800.94;10194484;28;20073;-67
2021/03/05 15:17:54;;;;;;;5.18;1.05;;;;;;;11.28;28.36;102795.25;10201484;28;20056;-67
2021/03/05 15:22:53;;;;;;;3.90;0.60;;;;;;;11.29;28.33;102799.63;10201937;28;20053;-68
2021/03/05 15:27:49;;;;;;;4.47;0.95;;;;;;;11.30;27.61;102801.28;10209742;28;20046;-66
2021/03/05 15:32:45;;;;;;;7.15;1.35;;;;;;;10.48;29.23;102806.50;10210520;28;20046;-68
2021/03/05 15:37:41;;;;;;;4.40;0.90;;;;;;;9.62;31.14;102813.00;10208313;28;20116;-66
2021/03/05 15:42:38;;;;;;;4.95;0.80;;;;;;;9.39;31.53;102823.16;10213321;28;20571;-68
2021/03/05 15:47:35;;;;;;;4.47;1.00;;;;;;;9.23;32.31;102827.63;10212674;28;20512;-69
2021/03/05 15:52:32;;;;;;;3.88;0.98;;;;;;;8.97;32.46;102840.19;10213365;28;20050;-65
2021/03/05 15:57:28;;;;;;;2.60;0.60;;;;;;;8.21;33.66;102832.63;10206353;28;20049;-66
2021/03/05 16:02:24;;;;;;;2.50;0.60;;;;;;;8.60;31.74;102846.28;10214591;28;20112;-67
2021/03/05 16:07:21;;;;;;;4.85;0.95;;;;;;;9.43;31.00;102828.94;10215823;28;20038;-68
2021/03/05 16:12:17;;;;;;;5.47;1.10;;;;;;;8.78;32.45;102849.78;10201265;28;20046;-67
2021/03/05 16:17:13;;;;;;;6.47;1.50;;;;;;;8.48;33.50;102848.28;10205835;28;20046;-67
2021/03/05 16:22:09;;;;;;;3.13;0.82;;;;;;;8.10;34.48;102860.78;10203192;28;20042;-68
2021/03/05 16:27:06;;;;;;;3.35;1.17;;;;;;;7.49;36.08;102867.91;10206918;28;20053;-68
2021/03/05 16:32:04;;;;;;;2.22;0.63;;;;;;;7.31;36.47;102867.06;10199681;28;20108;-66
2021/03/05 16:37:00;;;;;;;7.07;1.50;;;;;;;7.03;38.23;102870.59;10202477;28;20049;-68
2021/03/05 16:42:00;;;;;;;3.13;0.55;;;;;;;6.60;40.02;102873.75;10207104;28;20659;-65
2021/03/05 16:46:56;;;;;;;3.25;0.80;;;;;;;6.26;40.51;102882.50;10215614;28;20108;-67
2021/03/05 16:51:53;;;;;;;3.10;0.60;;;;;;;6.14;40.82;102889.00;10231549;28;20045;-67
2021/03/05 16:56:48;;;;;;;4.00;0.95;;;;;;;5.72;42.42;102897.16;10235564;28;20077;-68
2021/03/05 17:01:45;;;;;;;2.80;0.63;;;;;;;5.72;42.43;102891.72;10234597;28;20048;-65
2021/03/05 17:06:41;;;;;;;4.40;0.73;;;;;;;5.69;42.02;102899.25;10230373;28;20068;-68
2021/03/05 17:11:37;;;;;;;8.35;1.23;;;;;;;5.48;43.05;102902.50;10226329;28;20077;-65
2021/03/05 17:16:33;;;;;;;4.72;0.90;;;;;;;5.46;42.48;102904.63;10226649;28;20617;-66
2021/03/05 17:21:29;;;;;;;4.45;0.73;;;;;;;5.39;41.30;102914.72;10233055;28;20447;-69
2021/03/05 17:26:25;;;;;;;8.48;1.40;;;;;;;5.27;41.52;102915.50;10232155;28;20090;-68
2021/03/05 17:31:21;;;;;;;5.55;0.80;;;;;;;5.16;42.04;102924.38;10230712;28;20049;-65
2021/03/05 17:36:18;;;;;;;5.88;0.80;;;;;;;4.79;44.10;102932.53;10228954;28;20037;-68
2021/03/05 17:41:14;;;;;;;5.80;1.00;;;;;;;5.07;44.60;102933.88;10231719;28;20130;-67
2021/03/05 17:46:10;;;;;;;8.90;1.75;;;;;;;4.89;45.86;102931.16;10226528;28;20666;-68
2021/03/05 17:51:20;;;;;;;5.95;0.98;;;;;;;4.84;46.23;102946.22;10221323;28;20122;-69
2021/03/05 17:56:16;;;;;;;7.53;1.55;;;;;;;4.78;47.58;102954.41;10223117;28;20045;-65
2021/03/05 18:01:29;;;;;;;6.80;1.80;;;;;;;4.64;48.16;102951.84;10226448;28;20041;-68
2021/03/05 18:06:26;;;;;;;8.75;1.42;;;;;;;4.53;49.84;102955.28;10228112;28;20052;-68
2021/03/05 18:11:22;;;;;;;9.13;1.52;;;;;;;4.21;51.29;102958.03;10224223;28;20136;-66
2021/03/05 18:16:18;;;;;;;6.95;1.48;;;;;;;4.15;52.53;102963.50;10225291;28;20102;-66
2021/03/05 18:21:15;;;;;;;5.60;1.50;;;;;;;4.10;53.46;102966.06;10233721;28;20107;-68
2021/03/05 18:26:11;;;;;;;20.58;2.45;;;;;;;4.14;53.25;102961.88;10227326;28;20054;-65
2021/03/05 18:31:08;;;;;;;12.70;2.88;;;;;;;4.11;53.79;102965.84;10226365;28;20094;-65
2021/03/05 18:36:07;;;;;;;11.60;2.03;;;;;;;3.97;54.69;102973.22;10216263;28;20071;-66
2021/03/05 18:41:04;;;;;;;14.48;2.95;;;;;;;3.50;56.48;102966.41;10217573;28;20046;-67
2021/03/05 18:46:00;;;;;;;10.07;3.13;;;;;;;3.92;56.31;102978.47;10206697;28;20057;-67
2021/03/05 18:50:57;;;;;;;10.25;3.33;;;;;;;3.66;57.45;102965.06;10212132;28;20049;-68
2021/03/05 18:55:53;;;;;;;8.93;2.55;;;;;;;3.80;56.77;102969.34;10206369;28;20144;-68
2021/03/05 19:00:50;;;;;;;11.68;3.35;;;;;;;3.56;58.27;102981.78;10207866;28;20041;-68
2021/03/05 19:05:48;;;;;;;16.17;3.30;;;;;;;3.56;58.69;102982.59;10209858;28;20447;-64
2021/03/05 19:10:44;;;;;;;7.43;2.08;;;;;;;3.31;60.28;102989.78;10207038;28;20092;-67
2021/03/05 19:15:41;;;;;;;10.25;2.15;;;;;;;3.23;60.59;102998.13;10211398;28;20565;-66
2021/03/05 19:20:37;;;;;;;13.93;2.35;;;;;;;3.18;60.90;103004.19;10211300;28;20060;-67
2021/03/05 19:25:33;;;;;;;9.82;1.60;;;;;;;3.14;60.93;103011.88;10228356;28;20089;-68
2021/03/05 19:30:29;;;;;;;13.57;2.75;;;;;;;3.11;61.24;103016.84;10227246;28;20061;-67
2021/03/05 19:35:26;;;;;;;8.80;2.40;;;;;;;3.09;61.38;103022.50;10224948;28;20272;-65
2021/03/05 19:40:22;;;;;;;14.38;3.45;;;;;;;2.95;62.40;103023.56;10217989;28;20542;-65
2021/03/05 19:45:18;;;;;;;11.45;2.60;;;;;;;2.91;62.81;103027.72;10219845;28;20479;-66
2021/03/05 19:50:14;;;;;;;12.70;2.50;;;;;;;2.97;61.91;103023.31;10217178;28;20050;-66
2021/03/05 19:55:11;;;;;;;6.38;1.83;;;;;;;2.86;62.28;103027.53;10229296;28;20088;-64
2021/03/05 20:00:08;;;;;;;8.50;2.50;;;;;;;2.81;62.34;103038.94;10222492;28;20050;-66
2021/03/05 20:05:04;;;;;;;8.60;1.98;;;;;;;2.74;62.70;103028.16;10228969;28;20103;-66
2021/03/05 20:10:01;;;;;;;11.30;1.73;;;;;;;2.69;62.67;103036.06;10241023;28;20048;-68
2021/03/05 20:14:57;;;;;;;7.45;1.95;;;;;;;2.69;62.54;103038.75;10228437;28;20381;-68
2021/03/05 20:19:53;;;;;;;12.10;2.67;;;;;;;2.58;63.13;103039.38;10224162;28;20127;-68
2021/03/05 20:24:49;;;;;;;11.05;2.30;;;;;;;2.60;62.69;103047.25;10236019;28;20424;-71
2021/03/05 20:29:47;;;;;;;7.63;2.90;;;;;;;2.44;63.80;103045.81;10226780;28;20052;-67
2021/03/05 20:34:43;;;;;;;11.23;1.98;;;;;;;2.52;63.14;103051.81;10214930;28;20083;-67
2021/03/05 20:39:39;;;;;;;13.82;2.17;;;;;;;2.42;63.59;103045.16;10217966;28;20674;-68
2021/03/05 20:44:35;;;;;;;11.85;2.20;;;;;;;2.48;63.06;103049.72;10235494;28;20085;-68
2021/03/05 20:49:31;;;;;;;11.15;2.22;;;;;;;2.42;63.18;103058.66;10220966;28;20465;-67
2021/03/05 20:54:28;;;;;;;11.85;2.50;;;;;;;2.35;63.33;103063.22;10218922;28;20042;-70
2021/03/05 20:59:24;;;;;;;8.38;2.17;;;;;;;2.29;63.98;103068.41;10194739;28;20587;-68
2021/03/05 21:04:21;;;;;;;9.45;1.98;;;;;;;2.26;64.18;103068.81;10205153;28;20041;-65
2021/03/05 21:09:17;;;;;;;15.52;3.22;;;;;;;2.02;64.31;103072.06;10193983;28;20053;-66
2021/03/05 21:14:18;;;;;;;15.27;2.47;;;;;;;2.11;64.36;103076.22;10199026;28;20048;-67
2021/03/05 21:19:14;;;;;;;9.30;3.20;;;;;;;1.97;65.10;103069.97;10203271;28;20466;-67
2021/03/05 21:24:11;;;;;;;14.23;2.60;;;;;;;1.95;65.09;103082.00;10205477;28;20057;-68
2021/03/05 21:29:07;;;;;;;13.48;2.58;;;;;;;1.98;65.17;103078.91;10187217;28;20123;-67
2021/03/05 21:34:03;;;;;;;13.23;1.83;;;;;;;2.04;64.96;103084.34;10193623;28;20042;-67
2021/03/05 21:38:59;;;;;;;10.52;2.15;;;;;;;1.88;65.81;103085.53;10198684;28;20050;-67
2021/03/05 21:43:55;;;;;;;20.20;2.40;;;;;;;1.87;65.60;103091.09;10200010;28;20419;-67
2021/03/05 21:48:51;;;;;;;14.32;2.45;;;;;;;2.01;65.44;103092.00;10195300;28;20091;-65
2021/03/05 21:53:48;;;;;;;12.57;2.33;;;;;;;2.09;64.62;103094.53;10191090;28;20059;-64
2021/03/05 21:58:45;;;;;;;10.25;2.30;;;;;;;2.05;64.97;103094.09;10191222;28;20073;-63
2021/03/05 22:03:41;;;;;;;8.68;2.10;;;;;;;2.13;64.99;103101.16;10190569;28;20057;-63
2021/03/05 22:08:37;;;;;;;8.55;2.15;;;;;;;2.00;64.76;103096.56;10201401;28;20496;-63
2021/03/05 22:13:35;;;;;;;11.23;2.20;;;;;;;1.78;66.08;103098.53;10204344;28;20507;-65
2021/03/05 22:18:31;;;;;;;13.13;2.05;;;;;;;1.84;65.95;103100.44;10187480;28;20136;-61
2021/03/05 22:23:27;;;;;;;9.52;2.10;;;;;;;1.95;65.59;103092.78;10198075;28;20061;-69
2021/03/05 22:28:23;;;;;;;7.78;1.77;;;;;;;1.85;65.45;103099.38;10196011;28;20053;-71
2021/03/05 22:33:20;;;;;;;10.32;2.75;;;;;;;1.75;66.69;103107.03;10190065;28;20451;-68
2021/03/05 22:38:16;;;;;;;9.95;2.03;;;;;;;1.65;67.33;103103.88;10190539;28;20045;-68
2021/03/05 22:43:12;;;;;;;14.35;2.55;;;;;;;1.79;66.62;103105.59;10191709;28;20038;-69
2021/03/05 22:48:09;;;;;;;14.18;2.35;;;;;;;1.78;66.62;103112.03;10203442;28;20462;-67
2021/03/05 22:53:05;;;;;;;13.23;2.17;;;;;;;1.71;67.23;103108.47;10191561;28;20041;-67